Etusivu
METAR-TAF:

METAR-TAF

Lentoasemat :

Palestine Municipal Airport

Palestine, Texas, Yhdysvallat

Leveyspiiri: 31-46-46N, Pituuspiiri: 095-42-22W, korkeus merenpinnasta: 129 m

Tämänhetkinen sää

Tämä raportti tehtiin 22 minuuttia sitten, kello 01.15 UTC
Tuuli 5 kn kaakosta
Lämpötila 18°C
Kosteus 59%
Ilmanpaine 1015 hPa
Näkyvyys: 16.1 km
selkeää

METAR: KPSN 200115Z AUTO 13005KT 10SM CLR 18/10 A2998 RMK AO2 T01910106

Aika: 19:37 (01:37 UTC)


TAF: puuttuu

Säähavainnot ja -ennusteet yli 4000 lentoasemalta (METAR- ja TAF-raportit).

Käytössä olevat sääasemat on merkitty karttaan keltaisilla ja punaisilla pisteillä.

Aseta hiiri pisteen päälle nähdäksesi sääaseman nimen.

Klikkaa sitten nähdäksesi säähavainnot ja -ennusteet.

Kartan vaihtaminen: klikkaa mustalla rastilla varustettuja vihreitä pisteitä, niin voit zoomata sisään; viivalla varustettua vihreää pistettä, niin voit zoomata ulos tai vihreitä nuolia, niin pääset viereisille kartoille.


METAR-TAF: